Terminal Aerodrome Forecast
Issued by NWS

Home | Current Version | Previous Version | Text Only | Print | Product List | Glossary On
Versions: 1 2 3 4 5 6 7 8 9 10 11 12 13 14
000
FTUS45 KREV 200030 AAC
TAFCXP
TAF AMD
KCXP 200030Z 2001/2024 VRB06KT 5SM -TSRA BKN080CB OVC140
     FM200200 24009KT P6SM VCSH SCT080 BKN140
     FM200400 VRB03KT P6SM SCT100
     FM202000 04007KT P6SM SCT080=

USA.gov is the U.S. government's official web portal to all federal, state and local government web resources and services.